Northfield, Illinois
Current Conditions -  °F | °C
As of 12:52 AM on Monday 22 Dec 2014 (Local Time) from KPWK Reporting Station
Haze Haze  
Wind Chill: 23°   Ceiling: Unl
Heat Index: 31°   Visibility: 6mi
Dew Point: 26°   Wind: 8mph
Humidity: 82%   Direction: 160°SSE
Pressure: 30"   Gusts: NA
Location:  42.1029°N, 87.7571°W
Report Text: KPWK 220652Z AUTO 16007KT 6SM HZ CLR M01/M03 A3000 RMK AO2 SLP166 T10061033
Loading
Personal Weather Stations






























Interactive Weather Map New forecast layout! Learn more

10-Day Weather Forecast

Advertisements
Track Severe Weather on mobile